Time;durP1;ratioP1;P1;durP2;ratioP2;P2;SDS_P1;SDS_P2;PMS_P1;PMS_P2;Temp;Humidity;BMP_temperature;BMP_pressure;BME280_temperature;BME280_humidity;BME280_pressure;Samples;Min_cycle;Max_cycle;Signal;HPM_P1;HPM_P2
2022/01/29 00:02:15;;;;;;;;;;;5.20;99.90;;;;;;5199949;27;44170;-83
2022/01/29 00:04:43;;;;;;;;;;;5.20;99.90;;;;;;5236881;27;34876;-82
2022/01/29 00:07:10;;;;;;;;;;;5.20;99.90;;;;;;5218256;27;20003;-84
2022/01/29 00:09:38;;;;;;;;;;;5.20;99.90;;;;;;5237176;27;38299;-84
2022/01/29 00:12:05;;;;;;;;;;;5.30;99.90;;;;;;5236482;27;43990;-83
2022/01/29 00:14:33;;;;;;;;;;;5.20;99.90;;;;;;5237245;27;40731;-84
2022/01/29 00:17:00;;;;;;;;;;;5.20;99.90;;;;;;5218390;27;30315;-84
2022/01/29 00:19:27;;;;;;;;;;;5.20;99.90;;;;;;5218023;27;44608;-83
2022/01/29 00:21:54;;;;;;;;;;;5.20;99.90;;;;;;5219028;27;20039;-83
2022/01/29 00:24:21;;;;;;;;;;;5.20;99.90;;;;;;5236520;27;41008;-84
2022/01/29 00:26:48;;;;;;;;;;;5.30;99.90;;;;;;5237175;27;35371;-83
2022/01/29 00:29:20;;;;;;;;;;;5.30;99.90;;;;;;5236688;27;35789;-84
2022/01/29 00:31:47;;;;;;;;;;;5.20;99.90;;;;;;5218779;27;28377;-83
2022/01/29 00:34:14;;;;;;;;;;;5.20;99.90;;;;;;5237501;27;28076;-83
2022/01/29 00:36:41;;;;;;;;;;;5.20;99.90;;;;;;5237702;27;35319;-84
2022/01/29 00:39:08;;;;;;;;;;;5.20;99.90;;;;;;5239318;27;34608;-84
2022/01/29 00:41:38;;;;;;;;;;;5.20;99.90;;;;;;5219915;27;37573;-83
2022/01/29 00:44:05;;;;;;;;;;;5.20;99.90;;;;;;5239591;27;38182;-83
2022/01/29 00:46:33;;;;;;;;;;;5.30;99.90;;;;;;5219812;27;39345;-83
2022/01/29 00:49:00;;;;;;;;;;;5.20;99.90;;;;;;5221203;27;29897;-84
2022/01/29 00:51:27;;;;;;;;;;;5.30;99.90;;;;;;5220446;27;34369;-84
2022/01/29 00:53:54;;;;;;;;;;;5.20;99.90;;;;;;5220895;27;36064;-84
2022/01/29 00:56:21;;;;;;;;;;;5.20;99.90;;;;;;5239394;27;25933;-84
2022/01/29 00:58:48;;;;;;;;;;;5.20;99.90;;;;;;5239088;27;31604;-83
2022/01/29 01:01:16;;;;;;;;;;;5.20;99.90;;;;;;5220326;27;35683;-83
2022/01/29 01:03:43;;;;;;;;;;;5.20;99.90;;;;;;5202186;27;43031;-84
2022/01/29 01:06:10;;;;;;;;;;;5.30;99.90;;;;;;5239740;27;23010;-83
2022/01/29 01:08:37;;;;;;;;;;;5.30;99.90;;;;;;5220074;27;33548;-84
2022/01/29 01:11:04;;;;;;;;;;;5.30;99.90;;;;;;5202498;27;33064;-84
2022/01/29 01:13:35;;;;;;;;;;;5.30;99.90;;;;;;5238888;27;37560;-84
2022/01/29 01:16:02;;;;;;;;;;;5.30;99.90;;;;;;5239479;27;37336;-83
2022/01/29 01:18:32;;;;;;;;;;;5.30;99.90;;;;;;5203198;27;21345;-84
2022/01/29 01:20:59;;;;;;;;;;;5.30;99.90;;;;;;5239505;27;31514;-84
2022/01/29 01:23:26;;;;;;;;;;;5.30;99.90;;;;;;5240106;27;20080;-84
2022/01/29 01:25:53;;;;;;;;;;;5.30;99.90;;;;;;5220117;27;33780;-84
2022/01/29 01:28:21;;;;;;;;;;;5.30;99.90;;;;;;5219951;27;37488;-83
2022/01/29 01:30:50;;;;;;;;;;;5.30;99.90;;;;;;5239403;27;28443;-84
2022/01/29 01:33:17;;;;;;;;;;;5.30;99.90;;;;;;5219967;27;37247;-83
2022/01/29 01:35:49;;;;;;;;;;;5.30;99.90;;;;;;5240058;27;28673;-84
2022/01/29 01:40:55;;;;;;;;;;;5.30;99.90;;;;;;5219460;27;41436;-84
2022/01/29 01:43:25;;;;;;;;;;;5.30;99.90;;;;;;5220560;27;37464;-83
2022/01/29 01:45:54;;;;;;;;;;;5.30;99.90;;;;;;5202404;27;41172;-84
2022/01/29 01:48:21;;;;;;;;;;;5.30;99.90;;;;;;5238808;27;34433;-84
2022/01/29 01:50:49;;;;;;;;;;;5.30;99.90;;;;;;5220038;27;20027;-84
2022/01/29 01:53:17;;;;;;;;;;;5.30;99.90;;;;;;5200957;27;41568;-83
2022/01/29 01:55:44;;;;;;;;;;;5.30;99.90;;;;;;5201299;27;30146;-84
2022/01/29 01:58:14;;;;;;;;;;;5.30;99.90;;;;;;5201071;27;34803;-84
2022/01/29 02:00:41;;;;;;;;;;;5.30;99.90;;;;;;5237978;27;26095;-84
2022/01/29 02:03:09;;;;;;;;;;;5.30;99.90;;;;;;5218638;27;33688;-84
2022/01/29 02:05:37;;;;;;;;;;;5.30;99.90;;;;;;5218517;27;42594;-84
2022/01/29 02:08:05;;;;;;;;;;;5.30;99.90;;;;;;5200736;27;44319;-83
2022/01/29 02:10:32;;;;;;;;;;;5.30;99.90;;;;;;5218453;27;36047;-84
2022/01/29 02:13:02;;;;;;;;;;;5.30;99.90;;;;;;5218979;27;43879;-83
2022/01/29 02:15:30;;;;;;;;;;;5.30;99.90;;;;;;5238079;27;42216;-84
2022/01/29 02:17:57;;;;;;;;;;;5.30;99.90;;;;;;5218442;27;42029;-84
2022/01/29 02:20:26;;;;;;;;;;;5.30;99.90;;;;;;5218401;27;41219;-84
2022/01/29 02:22:53;;;;;;;;;;;5.30;99.90;;;;;;5238188;27;32799;-84
2022/01/29 02:25:31;;;;;;;;;;;5.30;99.90;;;;;;5238190;27;20011;-84
2022/01/29 02:28:02;;;;;;;;;;;5.30;99.90;;;;;;5218636;27;40710;-84
2022/01/29 02:30:32;;;;;;;;;;;5.30;99.90;;;;;;5219830;27;20008;-84
2022/01/29 02:33:00;;;;;;;;;;;5.30;99.90;;;;;;5219631;27;20361;-83
2022/01/29 02:35:33;;;;;;;;;;;5.30;99.90;;;;;;5219488;27;20035;-83
2022/01/29 02:38:00;;;;;;;;;;;5.30;99.90;;;;;;5202039;27;20005;-84
2022/01/29 02:40:35;;;;;;;;;;;5.30;99.90;;;;;;5220086;27;20053;-83
2022/01/29 02:43:31;;;;;;;;;;;5.30;99.90;;;;;;5219976;27;19991;-83
2022/01/29 02:46:18;;;;;;;;;;;5.30;99.90;;;;;;5238985;27;20445;-83
2022/01/29 02:48:47;;;;;;;;;;;5.30;99.90;;;;;;5238852;27;20016;-83
2022/01/29 02:51:14;;;;;;;;;;;5.30;99.90;;;;;;5239323;27;20447;-84
2022/01/29 02:53:42;;;;;;;;;;;5.30;99.90;;;;;;5239199;27;20044;-83
2022/01/29 02:56:12;;;;;;;;;;;5.30;99.90;;;;;;5219725;27;19995;-83
2022/01/29 02:58:39;;;;;;;;;;;5.30;99.90;;;;;;5238958;27;20019;-84
2022/01/29 03:01:07;;;;;;;;;;;5.30;99.90;;;;;;5237852;27;20003;-84
2022/01/29 03:03:37;;;;;;;;;;;5.30;99.90;;;;;;5215896;27;20498;-83
2022/01/29 03:06:08;;;;;;;;;;;5.30;99.90;;;;;;5216983;27;20014;-83
2022/01/29 03:08:36;;;;;;;;;;;5.30;99.90;;;;;;5215645;27;20411;-84
2022/01/29 03:11:04;;;;;;;;;;;5.30;99.90;;;;;;5217306;27;20090;-84
2022/01/29 03:13:34;;;;;;;;;;;5.30;99.90;;;;;;5216136;27;19999;-83
2022/01/29 03:16:01;;;;;;;;;;;5.30;99.90;;;;;;5215711;27;20340;-84
2022/01/29 03:18:32;;;;;;;;;;;5.30;99.90;;;;;;5216451;27;20043;-84
2022/01/29 03:21:01;;;;;;;;;;;5.30;99.90;;;;;;5215197;27;20008;-83
2022/01/29 03:23:34;;;;;;;;;;;5.30;99.90;;;;;;5217108;27;20012;-83
2022/01/29 03:26:01;;;;;;;;;;;5.30;99.90;;;;;;5217286;27;19992;-84
2022/01/29 03:28:29;;;;;;;;;;;5.30;99.90;;;;;;5217678;27;19999;-84
2022/01/29 03:30:56;;;;;;;;;;;5.30;99.90;;;;;;5217500;27;20003;-84
2022/01/29 03:33:23;;;;;;;;;;;5.30;99.90;;;;;;5216870;27;20385;-84
2022/01/29 03:35:51;;;;;;;;;;;5.30;99.90;;;;;;5198019;27;20014;-83
2022/01/29 03:38:18;;;;;;;;;;;5.30;99.90;;;;;;5217438;27;20491;-84
2022/01/29 03:40:48;;;;;;;;;;;5.40;99.90;;;;;;5215923;27;20049;-84
2022/01/29 03:43:24;;;;;;;;;;;5.30;99.90;;;;;;5196677;27;42655;-83
2022/01/29 03:45:52;;;;;;;;;;;5.40;99.90;;;;;;5215454;27;20055;-84
2022/01/29 03:48:19;;;;;;;;;;;5.40;99.90;;;;;;5197843;27;20043;-84
2022/01/29 03:50:46;;;;;;;;;;;5.40;99.90;;;;;;5197017;27;30138;-84
2022/01/29 03:53:14;;;;;;;;;;;5.40;99.90;;;;;;5196801;27;31747;-84
2022/01/29 03:55:41;;;;;;;;;;;5.40;99.90;;;;;;5213962;27;42614;-84
2022/01/29 03:58:10;;;;;;;;;;;5.40;99.90;;;;;;5216233;27;36711;-84
2022/01/29 04:00:37;;;;;;;;;;;5.40;99.90;;;;;;5214198;27;33373;-84
2022/01/29 04:03:04;;;;;;;;;;;5.40;99.90;;;;;;5214357;27;30247;-84
2022/01/29 04:05:32;;;;;;;;;;;5.40;99.90;;;;;;5216280;27;37464;-84
2022/01/29 04:07:59;;;;;;;;;;;5.40;99.90;;;;;;5216111;27;45061;-84
2022/01/29 04:10:28;;;;;;;;;;;5.40;99.90;;;;;;5214076;27;41867;-83
2022/01/29 04:12:58;;;;;;;;;;;5.40;99.90;;;;;;5196339;27;40374;-84
2022/01/29 04:15:25;;;;;;;;;;;5.40;99.90;;;;;;5214469;27;20663;-84
2022/01/29 04:17:55;;;;;;;;;;;5.40;99.90;;;;;;5214633;27;36716;-84
2022/01/29 04:20:22;;;;;;;;;;;5.40;99.90;;;;;;5215358;27;34611;-84
2022/01/29 04:22:49;;;;;;;;;;;5.40;99.90;;;;;;5214013;27;39338;-84
2022/01/29 04:25:16;;;;;;;;;;;5.40;99.90;;;;;;5214818;27;38667;-84
2022/01/29 04:27:46;;;;;;;;;;;5.40;99.90;;;;;;5215764;27;37585;-84
2022/01/29 04:30:41;;;;;;;;;;;5.40;99.90;;;;;;5214175;27;33018;-84
2022/01/29 04:33:28;;;;;;;;;;;5.40;99.90;;;;;;5214874;27;38725;-84
2022/01/29 04:35:56;;;;;;;;;;;5.40;99.90;;;;;;5214820;27;41412;-83
2022/01/29 04:38:23;;;;;;;;;;;5.50;99.90;;;;;;5196170;27;44100;-84
2022/01/29 04:40:50;;;;;;;;;;;5.50;99.90;;;;;;5214124;27;29973;-83
2022/01/29 04:43:17;;;;;;;;;;;5.50;99.90;;;;;;5216412;27;29848;-83
2022/01/29 04:45:44;;;;;;;;;;;5.50;99.90;;;;;;5216964;27;20037;-84
2022/01/29 04:48:12;;;;;;;;;;;5.50;99.90;;;;;;5216454;27;20005;-84
2022/01/29 04:50:39;;;;;;;;;;;5.50;99.90;;;;;;5215849;27;20062;-84
2022/01/29 04:53:06;;;;;;;;;;;5.50;99.90;;;;;;5216465;27;20017;-84
2022/01/29 04:55:39;;;;;;;;;;;5.50;99.90;;;;;;5197246;27;20363;-83
2022/01/29 04:58:06;;;;;;;;;;;5.50;99.90;;;;;;5216926;27;19992;-84
2022/01/29 05:00:35;;;;;;;;;;;5.50;99.90;;;;;;5216018;27;20006;-84
2022/01/29 05:03:13;;;;;;;;;;;5.50;99.90;;;;;;5214277;27;20014;-84
2022/01/29 05:05:41;;;;;;;;;;;5.50;99.90;;;;;;5214838;27;19995;-84
2022/01/29 05:08:08;;;;;;;;;;;5.50;99.90;;;;;;5214982;27;20019;-83
2022/01/29 05:10:35;;;;;;;;;;;5.50;99.90;;;;;;5197295;27;20406;-84
2022/01/29 05:29:04;;;;;;;;;;;5.60;99.90;;;;;;5217139;27;42843;-83
2022/01/29 05:31:34;;;;;;;;;;;5.60;99.90;;;;;;5215465;27;37670;-83
2022/01/29 05:34:01;;;;;;;;;;;5.50;99.90;;;;;;5217431;27;26552;-84
2022/01/29 05:36:31;;;;;;;;;;;5.60;99.90;;;;;;5216029;27;32171;-84
2022/01/29 05:38:58;;;;;;;;;;;5.60;99.90;;;;;;5198217;27;20006;-84
2022/01/29 05:41:28;;;;;;;;;;;5.60;99.90;;;;;;5217010;27;24120;-83
2022/01/29 05:43:55;;;;;;;;;;;5.60;99.90;;;;;;5216646;27;33086;-84
2022/01/29 05:46:22;;;;;;;;;;;5.60;99.90;;;;;;5215208;27;33423;-84
2022/01/29 05:48:52;;;;;;;;;;;5.60;99.90;;;;;;5215996;27;20001;-84
2022/01/29 05:51:19;;;;;;;;;;;5.60;99.90;;;;;;5216238;27;20035;-83
2022/01/29 05:53:47;;;;;;;;;;;5.60;99.90;;;;;;5216136;27;20006;-84
2022/01/29 05:56:17;;;;;;;;;;;5.60;99.90;;;;;;5217622;27;20052;-84
2022/01/29 05:58:44;;;;;;;;;;;5.60;99.90;;;;;;5216224;27;20007;-83
2022/01/29 06:01:14;;;;;;;;;;;5.60;99.90;;;;;;5199362;27;19998;-83
2022/01/29 06:03:44;;;;;;;;;;;5.60;99.90;;;;;;5216207;27;20035;-84
2022/01/29 06:06:11;;;;;;;;;;;5.60;99.90;;;;;;5216012;27;20002;-83
2022/01/29 06:08:41;;;;;;;;;;;5.60;99.90;;;;;;5217604;27;20025;-83
2022/01/29 06:11:09;;;;;;;;;;;5.60;99.90;;;;;;5197784;27;21820;-84
2022/01/29 06:13:36;;;;;;;;;;;5.60;99.90;;;;;;5199006;27;19992;-83
2022/01/29 06:16:03;;;;;;;;;;;5.60;99.90;;;;;;5216866;27;20047;-84
2022/01/29 06:18:31;;;;;;;;;;;5.60;99.90;;;;;;5216214;27;20381;-83
2022/01/29 06:21:03;;;;;;;;;;;5.60;99.90;;;;;;5216296;27;20008;-83
2022/01/29 06:23:39;;;;;;;;;;;5.60;99.90;;;;;;5218797;27;19992;-83
2022/01/29 06:26:11;;;;;;;;;;;5.60;99.90;;;;;;5217090;27;20049;-84
2022/01/29 06:28:43;;;;;;;;;;;5.60;99.90;;;;;;5216204;27;20026;-84
2022/01/29 06:31:10;;;;;;;;;;;5.70;99.90;;;;;;5215768;27;19996;-84
2022/01/29 06:33:38;;;;;;;;;;;5.60;99.90;;;;;;5217298;27;19999;-83
2022/01/29 06:36:05;;;;;;;;;;;5.60;99.90;;;;;;5215976;27;20019;-84
2022/01/29 06:38:36;;;;;;;;;;;5.70;99.90;;;;;;5215820;27;19996;-84
2022/01/29 06:41:03;;;;;;;;;;;5.70;99.90;;;;;;5216308;27;19992;-83
2022/01/29 06:43:30;;;;;;;;;;;5.70;99.90;;;;;;5198394;27;20031;-83
2022/01/29 06:46:01;;;;;;;;;;;5.70;99.90;;;;;;5198357;27;20000;-83
2022/01/29 06:48:28;;;;;;;;;;;5.70;99.90;;;;;;5215890;27;20009;-83
2022/01/29 06:50:55;;;;;;;;;;;5.70;99.90;;;;;;5216198;27;20371;-84
2022/01/29 06:53:22;;;;;;;;;;;5.70;99.90;;;;;;5215808;27;20010;-84
2022/01/29 06:55:49;;;;;;;;;;;5.70;99.90;;;;;;5215736;27;20062;-83
2022/01/29 06:58:19;;;;;;;;;;;5.70;99.90;;;;;;5216160;27;20006;-84
2022/01/29 07:01:07;;;;;;;;;;;5.70;99.90;;;;;;5217435;27;20004;-84
2022/01/29 07:03:37;;;;;;;;;;;5.70;99.90;;;;;;5215750;27;20029;-84
2022/01/29 07:06:04;;;;;;;;;;;5.70;99.90;;;;;;5215791;27;19991;-84
2022/01/29 07:08:37;;;;;;;;;;;5.70;99.90;;;;;;5198416;27;19992;-83
2022/01/29 07:11:04;;;;;;;;;;;5.80;99.90;;;;;;5198547;27;19995;-83
2022/01/29 07:13:35;;;;;;;;;;;5.80;99.90;;;;;;5217588;27;20003;-84
2022/01/29 07:16:02;;;;;;;;;;;5.80;99.90;;;;;;5196797;27;46591;-84
2022/01/29 07:18:29;;;;;;;;;;;5.80;99.90;;;;;;5217541;27;20069;-84
2022/01/29 07:20:56;;;;;;;;;;;5.80;99.90;;;;;;5217207;27;19999;-84
2022/01/29 07:23:23;;;;;;;;;;;5.80;99.90;;;;;;5216096;27;36843;-84
2022/01/29 07:25:53;;;;;;;;;;;5.80;99.90;;;;;;5214120;27;41899;-83
2022/01/29 07:28:20;;;;;;;;;;;5.80;99.90;;;;;;5214065;27;43259;-85
2022/01/29 07:30:48;;;;;;;;;;;5.80;99.90;;;;;;5216258;27;41174;-84
2022/01/29 07:33:15;;;;;;;;;;;5.80;99.90;;;;;;5215410;27;42134;-84
2022/01/29 07:35:45;;;;;;;;;;;5.80;99.90;;;;;;5196599;27;43857;-84
2022/01/29 07:38:13;;;;;;;;;;;5.80;99.90;;;;;;5215547;27;38947;-84
2022/01/29 07:40:40;;;;;;;;;;;5.90;99.90;;;;;;5215738;27;45240;-84
2022/01/29 07:43:07;;;;;;;;;;;5.90;99.90;;;;;;5215828;27;42738;-84
2022/01/29 07:45:35;;;;;;;;;;;5.90;99.90;;;;;;5213730;27;42719;-84
2022/01/29 07:48:05;;;;;;;;;;;5.90;99.90;;;;;;5214741;27;20405;-84
2022/01/29 07:50:34;;;;;;;;;;;5.90;99.90;;;;;;5215655;27;42037;-84
2022/01/29 07:53:02;;;;;;;;;;;5.90;99.90;;;;;;5214289;27;33657;-83
2022/01/29 07:55:30;;;;;;;;;;;5.90;99.90;;;;;;5196055;27;44626;-84
2022/01/29 07:58:01;;;;;;;;;;;5.90;99.90;;;;;;5213517;27;45600;-84
2022/01/29 08:00:40;;;;;;;;;;;5.90;99.90;;;;;;5216311;27;19991;-84
2022/01/29 08:03:18;;;;;;;;;;;5.90;99.90;;;;;;5197876;27;45199;-84
2022/01/29 08:05:45;;;;;;;;;;;5.90;99.90;;;;;;5214633;27;38901;-83
2022/01/29 08:08:19;;;;;;;;;;;5.90;99.90;;;;;;5215452;27;33045;-83
2022/01/29 08:10:50;;;;;;;;;;;6.00;99.90;;;;;;5196485;27;43976;-84
2022/01/29 08:13:17;;;;;;;;;;;6.00;99.90;;;;;;5216138;27;39177;-84
2022/01/29 08:15:49;;;;;;;;;;;6.00;99.90;;;;;;5215451;27;37758;-84
2022/01/29 08:18:16;;;;;;;;;;;6.00;99.90;;;;;;5214414;27;43055;-84
2022/01/29 08:21:07;;;;;;;;;;;6.00;99.90;;;;;;5215037;27;44026;-84
2022/01/29 08:23:37;;;;;;;;;;;6.00;99.90;;;;;;5217335;27;20044;-83
2022/01/29 08:26:04;;;;;;;;;;;6.00;99.90;;;;;;5216003;27;20055;-84
2022/01/29 08:28:35;;;;;;;;;;;6.00;99.90;;;;;;5215314;27;20055;-83
2022/01/29 08:31:02;;;;;;;;;;;6.00;99.90;;;;;;5216528;27;20381;-84
2022/01/29 08:33:30;;;;;;;;;;;6.10;99.90;;;;;;5216581;27;20043;-84
2022/01/29 08:35:58;;;;;;;;;;;6.10;99.90;;;;;;5216588;27;20010;-84
2022/01/29 08:38:28;;;;;;;;;;;6.10;99.90;;;;;;5214692;27;19995;-84
2022/01/29 08:41:01;;;;;;;;;;;6.10;99.90;;;;;;5197532;27;20898;-84
2022/01/29 08:43:29;;;;;;;;;;;6.10;99.90;;;;;;5197758;27;20025;-84
2022/01/29 08:46:01;;;;;;;;;;;6.10;99.90;;;;;;5215020;27;19999;-84
2022/01/29 08:48:29;;;;;;;;;;;6.10;99.90;;;;;;5217310;27;20000;-84
2022/01/29 08:51:02;;;;;;;;;;;6.10;99.90;;;;;;5215928;27;19988;-84
2022/01/29 08:53:31;;;;;;;;;;;6.10;99.90;;;;;;5215703;27;19996;-84
2022/01/29 08:55:58;;;;;;;;;;;6.20;99.90;;;;;;5216793;27;20040;-84
2022/01/29 08:58:28;;;;;;;;;;;6.10;99.90;;;;;;5198895;27;20407;-84
2022/01/29 09:00:59;;;;;;;;;;;6.20;99.90;;;;;;5290949;27;20000;-84
2022/01/29 09:03:26;;;;;;;;;;;6.20;99.90;;;;;;5216239;27;20014;-84
2022/01/29 09:05:54;;;;;;;;;;;6.20;99.90;;;;;;5199005;27;19991;-84
2022/01/29 09:08:21;;;;;;;;;;;6.20;99.90;;;;;;5198933;27;20039;-84
2022/01/29 09:10:49;;;;;;;;;;;6.20;99.90;;;;;;5217020;27;20004;-84
2022/01/29 09:13:18;;;;;;;;;;;6.20;99.90;;;;;;5217421;27;19999;-84
2022/01/29 09:15:45;;;;;;;;;;;6.20;99.90;;;;;;5216215;27;20008;-84
2022/01/29 09:18:13;;;;;;;;;;;6.20;99.90;;;;;;5217750;27;20008;-84
2022/01/29 09:20:40;;;;;;;;;;;6.30;99.90;;;;;;5216877;27;19998;-84
2022/01/29 09:23:12;;;;;;;;;;;6.30;99.90;;;;;;5217595;27;20014;-83
2022/01/29 09:25:42;;;;;;;;;;;6.30;99.90;;;;;;5199156;27;19996;-83
2022/01/29 09:28:17;;;;;;;;;;;6.30;99.90;;;;;;5218110;27;20049;-84
2022/01/29 09:30:45;;;;;;;;;;;6.30;99.90;;;;;;5216718;27;20009;-85
2022/01/29 09:33:12;;;;;;;;;;;6.30;99.90;;;;;;5198495;27;20332;-84
2022/01/29 09:35:44;;;;;;;;;;;6.30;99.90;;;;;;5216892;27;20006;-84
2022/01/29 09:38:12;;;;;;;;;;;6.30;99.90;;;;;;5215537;27;22564;-84
2022/01/29 09:40:42;;;;;;;;;;;6.30;99.90;;;;;;5217662;27;20068;-84
2022/01/29 09:43:11;;;;;;;;;;;6.30;99.90;;;;;;5198931;27;20002;-84
2022/01/29 09:45:38;;;;;;;;;;;6.40;99.90;;;;;;5216912;27;20003;-84
2022/01/29 09:48:06;;;;;;;;;;;6.40;99.90;;;;;;5215919;27;20401;-83
2022/01/29 09:50:35;;;;;;;;;;;6.40;99.90;;;;;;5216463;27;20039;-84
2022/01/29 09:53:05;;;;;;;;;;;6.40;99.90;;;;;;5198636;27;20031;-83
2022/01/29 09:55:33;;;;;;;;;;;6.40;99.90;;;;;;5216140;27;20035;-84
2022/01/29 09:58:06;;;;;;;;;;;6.40;99.90;;;;;;5216244;27;20053;-84
2022/01/29 10:00:34;;;;;;;;;;;6.50;99.90;;;;;;5199006;27;20029;-84
2022/01/29 10:03:10;;;;;;;;;;;6.50;99.90;;;;;;5215532;27;20056;-83
2022/01/29 10:05:40;;;;;;;;;;;6.50;99.90;;;;;;5216199;27;20004;-84
2022/01/29 10:08:08;;;;;;;;;;;6.50;99.90;;;;;;5217591;27;20352;-84
2022/01/29 10:10:39;;;;;;;;;;;6.50;99.90;;;;;;5216094;27;20053;-84
2022/01/29 10:13:26;;;;;;;;;;;6.50;99.90;;;;;;5198427;27;20002;-83
2022/01/29 10:16:03;;;;;;;;;;;6.50;99.90;;;;;;5214975;27;35044;-84
2022/01/29 10:18:31;;;;;;;;;;;6.60;99.90;;;;;;5214962;27;42805;-85
2022/01/29 10:21:18;;;;;;;;;;;6.50;99.90;;;;;;5216058;27;20470;-84
2022/01/29 10:23:45;;;;;;;;;;;6.60;99.90;;;;;;5176632;27;43545;-85
2022/01/29 10:26:29;;;;;;;;;;;6.60;99.90;;;;;;5215410;27;33105;-84
2022/01/29 10:28:57;;;;;;;;;;;6.60;99.90;;;;;;5215462;27;44991;-84
2022/01/29 10:31:24;;;;;;;;;;;6.60;99.90;;;;;;5215348;27;20025;-84
2022/01/29 10:33:51;;;;;;;;;;;6.60;99.90;;;;;;5214665;27;43637;-84
2022/01/29 10:36:22;;;;;;;;;;;6.70;99.90;;;;;;5196855;27;42099;-85
2022/01/29 10:38:53;;;;;;;;;;;6.70;99.90;;;;;;5216456;27;34334;-84
2022/01/29 10:41:22;;;;;;;;;;;6.70;99.90;;;;;;5217458;27;20043;-84
2022/01/29 10:44:14;;;;;;;;;;;6.70;99.90;;;;;;5217015;27;19999;-85
2022/01/29 10:46:45;;;;;;;;;;;6.70;99.90;;;;;;5217351;27;19999;-84
2022/01/29 10:49:17;;;;;;;;;;;6.70;99.90;;;;;;5217401;27;20000;-84
2022/01/29 10:51:56;;;;;;;;;;;6.70;99.90;;;;;;5217407;27;20392;-84
2022/01/29 10:54:27;;;;;;;;;;;6.70;99.90;;;;;;5215896;27;20008;-84
2022/01/29 10:57:02;;;;;;;;;;;6.70;99.90;;;;;;5215874;27;19988;-85
2022/01/29 10:59:34;;;;;;;;;;;6.70;99.90;;;;;;5198548;27;20328;-85
2022/01/29 11:02:03;;;;;;;;;;;6.80;99.90;;;;;;5198127;27;20006;-85
2022/01/29 11:04:33;;;;;;;;;;;6.80;99.90;;;;;;5217248;27;20021;-84
2022/01/29 11:07:07;;;;;;;;;;;6.80;99.90;;;;;;5217215;27;20426;-84
2022/01/29 11:09:34;;;;;;;;;;;6.80;99.90;;;;;;5214810;27;44017;-85
2022/01/29 11:12:03;;;;;;;;;;;6.80;99.90;;;;;;5214656;27;32381;-85
2022/01/29 11:14:31;;;;;;;;;;;6.90;99.90;;;;;;5216274;27;20393;-85
2022/01/29 11:16:59;;;;;;;;;;;6.90;99.90;;;;;;5215810;27;41609;-85
2022/01/29 11:19:26;;;;;;;;;;;6.90;99.90;;;;;;5197155;27;24066;-85
2022/01/29 11:21:54;;;;;;;;;;;6.90;99.90;;;;;;5213869;27;39332;-86
2022/01/29 11:24:23;;;;;;;;;;;6.90;99.90;;;;;;5215461;27;20047;-84
2022/01/29 11:26:57;;;;;;;;;;;6.90;99.90;;;;;;5215728;27;20324;-85
2022/01/29 11:29:29;;;;;;;;;;;7.00;99.90;;;;;;5213723;27;44573;-85
2022/01/29 11:32:15;;;;;;;;;;;7.00;99.90;;;;;;5213753;27;46724;-86
2022/01/29 11:35:01;;;;;;;;;;;7.00;99.90;;;;;;5215460;27;20006;-84
2022/01/29 11:37:46;;;;;;;;;;;7.00;99.90;;;;;;5215619;27;20393;-85
2022/01/29 11:40:13;;;;;;;;;;;7.00;99.90;;;;;;5216828;27;20029;-85
2022/01/29 11:42:57;;;;;;;;;;;7.00;99.90;;;;;;5216309;27;20012;-84
2022/01/29 11:45:40;;;;;;;;;;;7.00;99.90;;;;;;5216510;27;20021;-83
2022/01/29 11:48:08;;;;;;;;;;;7.00;99.90;;;;;;5215587;27;19995;-84
2022/01/29 11:50:35;;;;;;;;;;;7.10;99.90;;;;;;5197341;27;19995;-85
2022/01/29 11:53:03;;;;;;;;;;;7.10;99.90;;;;;;5216342;27;20010;-85
2022/01/29 11:55:39;;;;;;;;;;;7.00;99.90;;;;;;5197449;27;20002;-83
2022/01/29 11:58:13;;;;;;;;;;;7.10;99.90;;;;;;5215868;27;20006;-83
2022/01/29 12:00:40;;;;;;;;;;;7.10;99.90;;;;;;5215320;27;20008;-84
2022/01/29 12:03:28;;;;;;;;;;;7.10;99.90;;;;;;5197474;27;20004;-84
2022/01/29 12:06:13;;;;;;;;;;;7.10;99.90;;;;;;5216987;27;20025;-84
2022/01/29 12:08:55;;;;;;;;;;;7.10;99.90;;;;;;5216812;27;20004;-84
2022/01/29 12:11:24;;;;;;;;;;;7.10;99.90;;;;;;5216445;27;19998;-84
2022/01/29 12:14:10;;;;;;;;;;;7.10;99.90;;;;;;5215166;27;20071;-84
2022/01/29 12:16:49;;;;;;;;;;;7.20;99.90;;;;;;5214602;27;20008;-83
2022/01/29 12:19:40;;;;;;;;;;;7.20;99.90;;;;;;5215702;27;19996;-84
2022/01/29 12:22:26;;;;;;;;;;;7.20;99.90;;;;;;5197303;27;20327;-84
2022/01/29 12:24:55;;;;;;;;;;;7.20;99.90;;;;;;5215332;27;20010;-83
2022/01/29 12:27:23;;;;;;;;;;;7.20;99.90;;;;;;5215851;27;20380;-84
2022/01/29 12:29:50;;;;;;;;;;;7.30;99.90;;;;;;5216664;27;20014;-84
2022/01/29 12:32:18;;;;;;;;;;;7.30;99.90;;;;;;5215381;27;19992;-84
2022/01/29 12:34:53;;;;;;;;;;;7.30;99.90;;;;;;5216690;27;20065;-84
2022/01/29 12:37:20;;;;;;;;;;;7.30;99.90;;;;;;5216274;27;20018;-84
2022/01/29 12:40:02;;;;;;;;;;;7.30;99.90;;;;;;5217154;27;20444;-85
2022/01/29 12:42:42;;;;;;;;;;;7.30;99.90;;;;;;5214981;27;19994;-84
2022/01/29 12:45:10;;;;;;;;;;;7.30;99.90;;;;;;5216495;27;19996;-84
2022/01/29 12:47:37;;;;;;;;;;;7.40;99.90;;;;;;5216019;27;20004;-84
2022/01/29 12:50:04;;;;;;;;;;;7.40;99.90;;;;;;5197523;27;20002;-83
2022/01/29 12:52:32;;;;;;;;;;;7.40;99.90;;;;;;5215843;27;20003;-85
2022/01/29 12:55:00;;;;;;;;;;;7.40;99.90;;;;;;5216178;27;20007;-84
2022/01/29 12:57:47;;;;;;;;;;;7.40;99.90;;;;;;5215133;27;22601;-85
2022/01/29 13:00:16;;;;;;;;;;;7.40;99.90;;;;;;5216784;27;19999;-84
2022/01/29 13:02:44;;;;;;;;;;;7.40;99.90;;;;;;5214440;27;20027;-84
2022/01/29 13:05:12;;;;;;;;;;;7.40;99.90;;;;;;5215247;27;20351;-84
2022/01/29 13:07:40;;;;;;;;;;;7.50;99.90;;;;;;5215075;27;19996;-84
2022/01/29 13:10:09;;;;;;;;;;;7.50;99.90;;;;;;5215874;27;20385;-84
2022/01/29 13:12:42;;;;;;;;;;;7.50;99.90;;;;;;5216319;27;20004;-84
2022/01/29 13:15:10;;;;;;;;;;;7.50;99.90;;;;;;5215652;27;19999;-83
2022/01/29 13:17:42;;;;;;;;;;;7.50;99.90;;;;;;5215087;27;20356;-84
2022/01/29 13:20:10;;;;;;;;;;;7.50;99.90;;;;;;5215448;27;20002;-84
2022/01/29 13:22:40;;;;;;;;;;;7.60;99.90;;;;;;5215356;27;20032;-84
2022/01/29 13:25:15;;;;;;;;;;;7.50;99.90;;;;;;5198873;27;19996;-83
2022/01/29 13:27:43;;;;;;;;;;;7.60;99.90;;;;;;5215461;27;20328;-83
2022/01/29 13:30:18;;;;;;;;;;;7.60;99.90;;;;;;5214781;27;20006;-84
2022/01/29 13:32:47;;;;;;;;;;;7.60;99.90;;;;;;5214890;27;20016;-84
2022/01/29 13:35:14;;;;;;;;;;;7.60;99.90;;;;;;5215094;27;19988;-84
2022/01/29 13:37:41;;;;;;;;;;;7.60;99.90;;;;;;5214748;27;19988;-84
2022/01/29 13:40:09;;;;;;;;;;;7.60;99.90;;;;;;5215429;27;20392;-83
2022/01/29 13:42:51;;;;;;;;;;;7.60;99.90;;;;;;5197668;27;19998;-84
2022/01/29 13:45:22;;;;;;;;;;;7.70;99.90;;;;;;5198357;27;20004;-84
2022/01/29 13:47:59;;;;;;;;;;;7.70;99.90;;;;;;5216507;27;19998;-83
2022/01/29 13:50:28;;;;;;;;;;;7.60;99.90;;;;;;5216231;27;21454;-84
2022/01/29 13:52:59;;;;;;;;;;;7.70;99.90;;;;;;5217381;27;23954;-84
2022/01/29 13:55:27;;;;;;;;;;;7.70;99.90;;;;;;5198538;27;19995;-84
2022/01/29 13:58:02;;;;;;;;;;;7.70;99.90;;;;;;5217011;27;20004;-84
2022/01/29 14:00:49;;;;;;;;;;;7.70;99.90;;;;;;5198623;27;19991;-84
2022/01/29 14:03:18;;;;;;;;;;;7.70;99.90;;;;;;5232517;27;20384;-83
2022/01/29 14:05:45;;;;;;;;;;;7.70;99.90;;;;;;5202760;27;20027;-83
2022/01/29 14:08:17;;;;;;;;;;;7.70;99.90;;;;;;5219587;27;20007;-84
2022/01/29 14:10:44;;;;;;;;;;;7.70;99.90;;;;;;5219449;27;20047;-84
2022/01/29 14:13:11;;;;;;;;;;;7.80;99.90;;;;;;5239037;27;20003;-84
2022/01/29 14:15:38;;;;;;;;;;;7.70;99.90;;;;;;5239085;27;19999;-83
2022/01/29 14:18:06;;;;;;;;;;;7.80;99.90;;;;;;5220481;27;20006;-83
2022/01/29 14:20:36;;;;;;;;;;;7.80;99.90;;;;;;5219978;27;19999;-84
2022/01/29 14:23:04;;;;;;;;;;;7.80;99.90;;;;;;5219553;27;20045;-84
2022/01/29 14:25:31;;;;;;;;;;;7.80;99.90;;;;;;5220632;27;20005;-84
2022/01/29 14:28:01;;;;;;;;;;;7.80;99.90;;;;;;5238768;27;20039;-84
2022/01/29 14:30:28;;;;;;;;;;;7.80;99.90;;;;;;5219803;27;20425;-83
2022/01/29 14:32:55;;;;;;;;;;;7.80;99.90;;;;;;5219539;27;20003;-84
2022/01/29 14:35:25;;;;;;;;;;;7.80;99.90;;;;;;5220001;27;19995;-83
2022/01/29 14:37:57;;;;;;;;;;;7.80;99.90;;;;;;5202400;27;19992;-84
2022/01/29 14:40:28;;;;;;;;;;;7.80;99.90;;;;;;5202050;27;19988;-84
2022/01/29 14:43:01;;;;;;;;;;;7.80;99.90;;;;;;5219904;27;20039;-83
2022/01/29 14:45:28;;;;;;;;;;;7.90;99.90;;;;;;5219256;27;19991;-84
2022/01/29 14:48:06;;;;;;;;;;;7.80;99.90;;;;;;5221076;27;20424;-84
2022/01/29 14:50:33;;;;;;;;;;;7.90;99.90;;;;;;5202105;27;19984;-84
2022/01/29 14:53:06;;;;;;;;;;;7.90;99.90;;;;;;5202444;27;20037;-84
2022/01/29 14:55:36;;;;;;;;;;;7.90;99.90;;;;;;5220362;27;20093;-83
2022/01/29 14:58:06;;;;;;;;;;;7.90;99.90;;;;;;5220719;27;20436;-85
2022/01/29 15:00:33;;;;;;;;;;;7.90;99.90;;;;;;5219979;27;20090;-84
2022/01/29 15:03:03;;;;;;;;;;;7.90;99.90;;;;;;5219253;27;20003;-84
2022/01/29 15:05:34;;;;;;;;;;;7.90;99.90;;;;;;5202594;27;20039;-84
2022/01/29 15:08:10;;;;;;;;;;;7.90;99.90;;;;;;5220177;27;20035;-84